Time;durP1;ratioP1;P1;durP2;ratioP2;P2;SDS_P1;SDS_P2;PMS_P1;PMS_P2;Temp;Humidity;BMP_temperature;BMP_pressure;BME280_temperature;BME280_humidity;BME280_pressure;Samples;Min_cycle;Max_cycle;Signal;HPM_P1;HPM_P2
2021/12/12 00:00:44;;;;;;;;;;;4.00;99.90;;;;;;5040212;28;19968;-79
2021/12/12 00:03:19;;;;;;;;;;;3.90;99.90;;;;;;5022097;28;19921;-78
2021/12/12 00:05:46;;;;;;;;;;;4.00;99.90;;;;;;5039629;28;20023;-79
2021/12/12 00:08:14;;;;;;;;;;;3.90;99.90;;;;;;5021086;28;19974;-79
2021/12/12 00:10:41;;;;;;;;;;;4.00;99.90;;;;;;5020810;28;19970;-79
2021/12/12 00:13:08;;;;;;;;;;;4.00;99.90;;;;;;5020258;28;20200;-78
2021/12/12 00:15:34;;;;;;;;;;;4.00;99.90;;;;;;5036652;28;19927;-79
2021/12/12 00:17:59;;;;;;;;;;;4.00;99.90;;;;;;5036333;28;19921;-78
2021/12/12 00:20:27;;;;;;;;;;;4.00;99.90;;;;;;5020174;28;20087;-78
2021/12/12 00:22:58;;;;;;;;;;;4.00;99.90;;;;;;5020005;28;20011;-78
2021/12/12 00:25:25;;;;;;;;;;;4.00;99.90;;;;;;5036953;28;19921;-79
2021/12/12 00:27:50;;;;;;;;;;;4.00;99.90;;;;;;5036142;28;20382;-78
2021/12/12 00:30:16;;;;;;;;;;;4.00;99.90;;;;;;5019911;28;19937;-78
2021/12/12 00:32:42;;;;;;;;;;;4.00;99.90;;;;;;5020237;28;19925;-79
2021/12/12 00:35:10;;;;;;;;;;;4.00;99.90;;;;;;5036373;28;19921;-78
2021/12/12 00:37:37;;;;;;;;;;;4.00;99.90;;;;;;5036151;28;19928;-79
2021/12/12 00:40:07;;;;;;;;;;;4.00;99.90;;;;;;5020088;28;19933;-78
2021/12/12 00:42:34;;;;;;;;;;;4.00;99.90;;;;;;5036061;28;19928;-79
2021/12/12 00:45:02;;;;;;;;;;;4.00;99.90;;;;;;5008104;28;19921;-79
2021/12/12 00:47:28;;;;;;;;;;;4.00;99.90;;;;;;5036489;28;19921;-79
2021/12/12 00:49:54;;;;;;;;;;;4.00;99.90;;;;;;5013921;28;20302;-79
2021/12/12 00:52:20;;;;;;;;;;;4.10;99.90;;;;;;5034756;28;19920;-79
2021/12/12 00:54:48;;;;;;;;;;;4.10;99.90;;;;;;5035688;28;20306;-79
2021/12/12 00:57:16;;;;;;;;;;;4.10;99.90;;;;;;5035140;28;19939;-79
2021/12/12 00:59:44;;;;;;;;;;;4.10;99.90;;;;;;5019281;28;19925;-79
2021/12/12 01:02:12;;;;;;;;;;;4.10;99.90;;;;;;5018974;28;19991;-79
2021/12/12 01:04:41;;;;;;;;;;;4.10;99.90;;;;;;5019055;28;19974;-79
2021/12/12 01:07:09;;;;;;;;;;;4.10;99.90;;;;;;5019303;28;20367;-79
2021/12/12 01:09:38;;;;;;;;;;;4.10;99.90;;;;;;5035317;28;19925;-80
2021/12/12 01:12:07;;;;;;;;;;;4.10;99.90;;;;;;5018907;28;19968;-78
2021/12/12 01:14:34;;;;;;;;;;;4.10;99.90;;;;;;5019223;28;19925;-79
2021/12/12 01:17:02;;;;;;;;;;;4.20;99.90;;;;;;5035268;28;19920;-79
2021/12/12 01:19:30;;;;;;;;;;;4.20;99.90;;;;;;5019005;28;20008;-79
2021/12/12 01:21:57;;;;;;;;;;;4.20;99.90;;;;;;5002416;28;19921;-78
2021/12/12 01:24:27;;;;;;;;;;;4.20;99.90;;;;;;5002467;28;20378;-80
2021/12/12 01:26:53;;;;;;;;;;;4.20;99.90;;;;;;5018734;28;19925;-79
2021/12/12 01:29:20;;;;;;;;;;;4.20;99.90;;;;;;5034802;28;19924;-79
2021/12/12 01:31:47;;;;;;;;;;;4.20;99.90;;;;;;5035063;28;19948;-79
2021/12/12 01:34:15;;;;;;;;;;;4.20;99.90;;;;;;5035127;28;19921;-80
2021/12/12 01:37:34;;;;;;;;;;;4.20;99.90;;;;;;5002268;28;20299;-79
2021/12/12 01:39:35;;;;;;;;;;;4.20;99.90;;;;;;5016156;28;19921;-79
2021/12/12 01:42:03;;;;;;;;;;;4.20;99.90;;;;;;5018535;28;19925;-79
2021/12/12 01:44:32;;;;;;;;;;;4.20;99.90;;;;;;5018819;28;19921;-79
2021/12/12 01:47:01;;;;;;;;;;;4.20;99.90;;;;;;5051240;28;20428;-79
2021/12/12 01:49:28;;;;;;;;;;;4.20;99.90;;;;;;5032708;28;20281;-79
2021/12/12 01:51:56;;;;;;;;;;;4.30;99.90;;;;;;5026079;28;20301;-79
2021/12/12 01:54:25;;;;;;;;;;;4.30;99.90;;;;;;5001852;28;19921;-79
2021/12/12 01:56:54;;;;;;;;;;;4.30;99.90;;;;;;5016981;28;20020;-80
2021/12/12 01:59:22;;;;;;;;;;;4.30;99.90;;;;;;5034868;28;19956;-80
2021/12/12 02:01:51;;;;;;;;;;;4.30;99.90;;;;;;5034685;28;20326;-80
2021/12/12 02:04:19;;;;;;;;;;;4.30;99.90;;;;;;5075585;22;19970;-77
2021/12/12 02:06:46;;;;;;;;;;;4.30;99.90;;;;;;5077880;28;19920;-79
2021/12/12 02:09:13;;;;;;;;;;;4.30;99.90;;;;;;5078037;28;20451;-78
2021/12/12 02:11:39;;;;;;;;;;;4.30;99.90;;;;;;5095425;28;19930;-78
2021/12/12 02:14:10;;;;;;;;;;;4.40;99.90;;;;;;5095735;28;19920;-79
2021/12/12 02:16:37;;;;;;;;;;;4.30;99.90;;;;;;5097321;28;20122;-78
2021/12/12 02:19:05;;;;;;;;;;;4.30;99.90;;;;;;5097339;28;19919;-80
2021/12/12 02:21:35;;;;;;;;;;;4.30;99.90;;;;;;5080331;28;19927;-79
2021/12/12 02:35:20;;;;;;;;;;;4.40;99.90;;;;;;5079610;28;19975;-79
2021/12/12 02:37:48;;;;;;;;;;;4.40;99.90;;;;;;5062718;28;19980;-78
2021/12/12 02:40:20;;;;;;;;;;;4.40;99.90;;;;;;5096388;28;19927;-80
2021/12/12 02:42:46;;;;;;;;;;;4.40;99.90;;;;;;5095824;28;19924;-78
2021/12/12 02:45:15;;;;;;;;;;;4.40;99.90;;;;;;5062315;28;19923;-79
2021/12/12 02:47:43;;;;;;;;;;;4.40;99.90;;;;;;5078589;28;19920;-78
2021/12/12 02:50:13;;;;;;;;;;;4.40;99.90;;;;;;5078129;28;19923;-79
2021/12/12 02:52:40;;;;;;;;;;;4.40;99.90;;;;;;5056587;28;19928;-79
2021/12/12 02:55:08;;;;;;;;;;;4.40;99.90;;;;;;5078809;28;19965;-80
2021/12/12 02:57:35;;;;;;;;;;;4.50;99.90;;;;;;5112535;28;19931;-79
2021/12/12 03:00:02;;;;;;;;;;;4.50;99.90;;;;;;5079119;28;19931;-79
2021/12/12 03:02:30;;;;;;;;;;;4.50;99.90;;;;;;5095896;28;19919;-80
2021/12/12 03:04:57;;;;;;;;;;;4.50;99.90;;;;;;5099662;28;19919;-78
2021/12/12 03:07:22;;;;;;;;;;;4.50;99.90;;;;;;5099228;28;19926;-79
2021/12/12 03:09:51;;;;;;;;;;;4.50;99.90;;;;;;5099705;28;19924;-80
2021/12/12 03:12:18;;;;;;;;;;;4.60;99.90;;;;;;5099965;28;19920;-79
2021/12/12 03:14:45;;;;;;;;;;;4.50;99.90;;;;;;5099363;27;19965;-78
2021/12/12 03:17:14;;;;;;;;;;;4.60;99.90;;;;;;5103675;27;20381;-79
2021/12/12 03:19:40;;;;;;;;;;;4.60;99.90;;;;;;5119968;27;19979;-78
2021/12/12 03:22:06;;;;;;;;;;;4.60;99.90;;;;;;5104065;27;19920;-79
2021/12/12 03:24:32;;;;;;;;;;;4.60;99.90;;;;;;5103445;27;19919;-79
2021/12/12 03:26:59;;;;;;;;;;;4.60;99.90;;;;;;5103238;27;19969;-79
2021/12/12 03:29:27;;;;;;;;;;;4.60;99.90;;;;;;5085862;27;19923;-79
2021/12/12 03:31:57;;;;;;;;;;;4.70;99.90;;;;;;5103574;27;19920;-79
2021/12/12 03:34:24;;;;;;;;;;;4.70;99.90;;;;;;5102655;27;19924;-79
2021/12/12 03:36:51;;;;;;;;;;;4.70;99.90;;;;;;5085877;27;19919;-79
2021/12/12 03:39:18;;;;;;;;;;;4.70;99.90;;;;;;5102754;27;20322;-79
2021/12/12 03:41:44;;;;;;;;;;;4.70;99.90;;;;;;5085430;27;19972;-79
2021/12/12 03:44:11;;;;;;;;;;;4.70;99.90;;;;;;5084337;27;19923;-78
2021/12/12 03:46:37;;;;;;;;;;;4.70;99.90;;;;;;5102724;27;19927;-79
2021/12/12 03:49:04;;;;;;;;;;;4.70;99.90;;;;;;5118526;27;19924;-78
2021/12/12 03:51:30;;;;;;;;;;;4.70;99.90;;;;;;5084080;27;20006;-78
2021/12/12 03:53:57;;;;;;;;;;;4.80;99.90;;;;;;5117928;27;19920;-78
2021/12/12 03:56:23;;;;;;;;;;;4.80;99.90;;;;;;5102024;27;19919;-78
2021/12/12 03:58:49;;;;;;;;;;;4.80;99.90;;;;;;5102194;27;19919;-79
2021/12/12 04:01:17;;;;;;;;;;;4.80;99.90;;;;;;5085278;27;19934;-78
2021/12/12 04:03:43;;;;;;;;;;;4.90;99.90;;;;;;5101872;27;19935;-79
2021/12/12 04:06:12;;;;;;;;;;;4.90;99.90;;;;;;5118913;27;19920;-77
2021/12/12 04:08:40;;;;;;;;;;;4.90;99.90;;;;;;5118592;27;19927;-78
2021/12/12 04:11:07;;;;;;;;;;;4.90;99.90;;;;;;5118471;27;20359;-79
2021/12/12 04:13:37;;;;;;;;;;;4.90;99.90;;;;;;5101754;27;19919;-79
2021/12/12 04:16:03;;;;;;;;;;;4.90;99.90;;;;;;5085122;27;19919;-80
2021/12/12 04:18:28;;;;;;;;;;;4.90;99.90;;;;;;5102037;27;19926;-79
2021/12/12 04:20:54;;;;;;;;;;;4.90;99.90;;;;;;5102083;27;19923;-79
2021/12/12 04:23:22;;;;;;;;;;;5.00;99.90;;;;;;5118300;27;19920;-79
2021/12/12 04:25:48;;;;;;;;;;;5.00;99.90;;;;;;5102260;27;20270;-79
2021/12/12 04:28:14;;;;;;;;;;;5.00;99.90;;;;;;5117509;27;19949;-78
2021/12/12 04:30:40;;;;;;;;;;;5.00;99.90;;;;;;5101474;27;19989;-79
2021/12/12 04:33:06;;;;;;;;;;;5.00;99.90;;;;;;5100365;27;20388;-78
2021/12/12 04:35:32;;;;;;;;;;;5.00;99.90;;;;;;5101488;27;19919;-79
2021/12/12 04:37:59;;;;;;;;;;;5.00;99.90;;;;;;5100724;27;19973;-79
2021/12/12 04:40:27;;;;;;;;;;;5.00;99.90;;;;;;5101131;27;19920;-79
2021/12/12 04:42:53;;;;;;;;;;;5.00;99.90;;;;;;5100804;27;19923;-78
2021/12/12 04:45:25;;;;;;;;;;;5.00;99.90;;;;;;5100763;27;19970;-79
2021/12/12 04:50:40;;;;;;;;;;;5.00;99.90;;;;;;5117139;27;19919;-77
2021/12/12 04:53:07;;;;;;;;;;;5.00;99.90;;;;;;5079700;27;19924;-78
2021/12/12 04:55:37;;;;;;;;;;;5.00;99.90;;;;;;5100146;27;20357;-79
2021/12/12 04:58:04;;;;;;;;;;;5.00;99.90;;;;;;5100108;27;19923;-78
2021/12/12 05:00:33;;;;;;;;;;;5.00;99.90;;;;;;5100697;27;19920;-79
2021/12/12 05:03:02;;;;;;;;;;;5.00;99.90;;;;;;5117186;27;19923;-78
2021/12/12 05:05:29;;;;;;;;;;;5.10;99.90;;;;;;5099720;27;19926;-78
2021/12/12 05:07:58;;;;;;;;;;;5.10;99.90;;;;;;5116512;27;20426;-79
2021/12/12 05:10:25;;;;;;;;;;;5.10;99.90;;;;;;5099911;27;20393;-79
2021/12/12 05:12:54;;;;;;;;;;;5.10;99.90;;;;;;5083535;27;19923;-80
2021/12/12 05:15:24;;;;;;;;;;;5.10;99.90;;;;;;5099621;27;19923;-79
2021/12/12 05:17:51;;;;;;;;;;;5.10;99.90;;;;;;5099553;27;20400;-78
2021/12/12 05:20:18;;;;;;;;;;;5.10;99.90;;;;;;5083320;27;19970;-78
2021/12/12 05:22:44;;;;;;;;;;;5.20;99.90;;;;;;5099731;27;19926;-79
2021/12/12 05:25:11;;;;;;;;;;;5.20;99.90;;;;;;5099512;27;20384;-78
2021/12/12 05:27:37;;;;;;;;;;;5.20;99.90;;;;;;5100197;27;20420;-77
2021/12/12 05:30:07;;;;;;;;;;;5.20;99.90;;;;;;5099778;27;19923;-78
2021/12/12 05:32:34;;;;;;;;;;;5.20;99.90;;;;;;5116725;27;20385;-78
2021/12/12 05:35:00;;;;;;;;;;;5.30;99.90;;;;;;5082522;27;20014;-77
2021/12/12 05:37:27;;;;;;;;;;;5.30;99.90;;;;;;5115530;28;19930;-77
2021/12/12 05:39:52;;;;;;;;;;;5.30;99.90;;;;;;5099327;27;19920;-78
2021/12/12 05:42:19;;;;;;;;;;;5.30;99.90;;;;;;5116197;27;20017;-77
2021/12/12 05:44:45;;;;;;;;;;;5.30;99.90;;;;;;5075987;28;20079;-77
2021/12/12 05:47:12;;;;;;;;;;;5.40;99.90;;;;;;5062414;28;19919;-78
2021/12/12 05:49:38;;;;;;;;;;;5.40;99.90;;;;;;5078180;28;19924;-78
2021/12/12 05:52:05;;;;;;;;;;;5.40;99.90;;;;;;5078945;28;19926;-79
2021/12/12 05:54:31;;;;;;;;;;;5.40;99.90;;;;;;5081722;27;19954;-78
2021/12/12 05:56:59;;;;;;;;;;;5.40;99.90;;;;;;5081834;27;19981;-77
2021/12/12 05:59:27;;;;;;;;;;;5.50;99.90;;;;;;5098343;27;19924;-79
2021/12/12 06:01:55;;;;;;;;;;;5.50;99.90;;;;;;5098803;27;20014;-79
2021/12/12 06:04:22;;;;;;;;;;;5.50;99.90;;;;;;5081209;27;19926;-78
2021/12/12 06:06:48;;;;;;;;;;;5.50;99.90;;;;;;5099206;27;19970;-78
2021/12/12 06:09:14;;;;;;;;;;;5.50;99.90;;;;;;5133025;27;19973;-78
2021/12/12 06:11:41;;;;;;;;;;;5.60;99.90;;;;;;5082945;27;20305;-78
2021/12/12 06:14:08;;;;;;;;;;;5.50;99.90;;;;;;5081839;27;19919;-79
2021/12/12 06:16:35;;;;;;;;;;;5.60;99.90;;;;;;5081600;27;19919;-77
2021/12/12 06:19:03;;;;;;;;;;;5.60;99.90;;;;;;5081901;27;20408;-78
2021/12/12 06:21:30;;;;;;;;;;;5.60;99.90;;;;;;5098545;27;19923;-77
2021/12/12 06:23:57;;;;;;;;;;;5.60;99.90;;;;;;5115310;28;19972;-78
2021/12/12 06:26:23;;;;;;;;;;;5.60;99.90;;;;;;5081217;27;19920;-78
2021/12/12 06:28:49;;;;;;;;;;;5.70;99.90;;;;;;5098141;27;19957;-78
2021/12/12 06:31:15;;;;;;;;;;;5.70;99.90;;;;;;5081566;28;20103;-78
2021/12/12 06:33:41;;;;;;;;;;;5.70;99.90;;;;;;5098029;27;19920;-78
2021/12/12 06:36:08;;;;;;;;;;;5.70;99.90;;;;;;5099124;28;19923;-78
2021/12/12 06:38:36;;;;;;;;;;;5.70;99.90;;;;;;5081288;28;19920;-78
2021/12/12 06:41:03;;;;;;;;;;;5.70;99.90;;;;;;5081719;28;19930;-78
2021/12/12 06:43:29;;;;;;;;;;;5.70;99.90;;;;;;5097853;28;19941;-78
2021/12/12 06:45:55;;;;;;;;;;;5.70;99.90;;;;;;5098318;28;19923;-79
2021/12/12 06:48:21;;;;;;;;;;;5.80;99.90;;;;;;5081249;28;19927;-78
2021/12/12 06:50:48;;;;;;;;;;;5.80;99.90;;;;;;5100103;27;20399;-78
2021/12/12 06:53:16;;;;;;;;;;;5.80;99.90;;;;;;5085029;27;20436;-78
2021/12/12 06:55:45;;;;;;;;;;;5.80;99.90;;;;;;5081528;27;19970;-78
2021/12/12 06:58:12;;;;;;;;;;;5.80;99.90;;;;;;5110593;27;19930;-77
2021/12/12 07:00:39;;;;;;;;;;;5.80;99.90;;;;;;5120103;27;20452;-78
2021/12/12 07:03:05;;;;;;;;;;;5.80;99.90;;;;;;5119006;27;19943;-78
2021/12/12 07:05:31;;;;;;;;;;;5.90;99.90;;;;;;5119138;27;20376;-78
2021/12/12 07:07:57;;;;;;;;;;;5.80;99.90;;;;;;5084576;27;19942;-78
2021/12/12 07:10:24;;;;;;;;;;;5.90;99.90;;;;;;5084757;27;20342;-78
2021/12/12 07:12:55;;;;;;;;;;;5.90;99.90;;;;;;5101752;27;19919;-78
2021/12/12 07:15:22;;;;;;;;;;;5.90;99.90;;;;;;5101532;27;20010;-78
2021/12/12 07:17:48;;;;;;;;;;;5.90;99.90;;;;;;5101241;27;19966;-77
2021/12/12 07:20:14;;;;;;;;;;;5.90;99.90;;;;;;5101333;27;19989;-77
2021/12/12 07:22:40;;;;;;;;;;;5.90;99.90;;;;;;5101426;27;20404;-78
2021/12/12 07:25:07;;;;;;;;;;;5.90;99.90;;;;;;5101674;27;19920;-78
2021/12/12 07:27:33;;;;;;;;;;;5.90;99.90;;;;;;5084525;27;19962;-78
2021/12/12 07:30:01;;;;;;;;;;;5.90;99.90;;;;;;5101229;27;20367;-78
2021/12/12 07:32:27;;;;;;;;;;;5.90;99.90;;;;;;5101094;27;19953;-78
2021/12/12 07:34:53;;;;;;;;;;;6.00;99.90;;;;;;5075639;27;20374;-79
2021/12/12 07:37:19;;;;;;;;;;;6.00;99.90;;;;;;5112347;28;20006;-78
2021/12/12 07:39:46;;;;;;;;;;;6.00;99.90;;;;;;5066407;28;19924;-77
2021/12/12 07:42:13;;;;;;;;;;;6.00;99.90;;;;;;5084410;28;20396;-78
2021/12/12 07:44:40;;;;;;;;;;;6.00;99.90;;;;;;5100556;27;19923;-78
2021/12/12 07:47:08;;;;;;;;;;;6.10;99.90;;;;;;5101189;27;19968;-78
2021/12/12 07:49:35;;;;;;;;;;;6.10;99.90;;;;;;5075850;27;19924;-78
2021/12/12 07:52:01;;;;;;;;;;;6.10;99.90;;;;;;5089763;27;19963;-77
2021/12/12 07:54:28;;;;;;;;;;;6.10;99.90;;;;;;5100702;27;19926;-77
2021/12/12 07:56:54;;;;;;;;;;;6.20;99.90;;;;;;5104289;27;20010;-78
2021/12/12 07:59:19;;;;;;;;;;;6.20;99.90;;;;;;5109633;27;19959;-77
2021/12/12 08:01:46;;;;;;;;;;;6.30;99.90;;;;;;5107763;28;19924;-78
2021/12/12 08:04:14;;;;;;;;;;;6.20;99.90;;;;;;5096940;28;19926;-77
2021/12/12 08:06:40;;;;;;;;;;;6.30;99.90;;;;;;5095952;28;19980;-77
2021/12/12 08:09:06;;;;;;;;;;;6.30;99.90;;;;;;5106666;27;19954;-78
2021/12/12 08:11:33;;;;;;;;;;;6.40;99.90;;;;;;5115010;27;19919;-78
2021/12/12 08:14:00;;;;;;;;;;;6.40;99.90;;;;;;5095147;27;19919;-78
2021/12/12 08:16:26;;;;;;;;;;;6.40;99.90;;;;;;5100058;27;20370;-77
2021/12/12 08:18:52;;;;;;;;;;;6.40;99.90;;;;;;5083674;27;19966;-78
2021/12/12 08:21:20;;;;;;;;;;;6.40;99.90;;;;;;5100751;27;19974;-78
2021/12/12 08:23:46;;;;;;;;;;;6.40;99.90;;;;;;5117244;27;19983;-78
2021/12/12 08:26:12;;;;;;;;;;;6.40;99.90;;;;;;5117181;27;19923;-78
2021/12/12 08:28:38;;;;;;;;;;;6.40;99.90;;;;;;5115277;27;20308;-78
2021/12/12 08:31:04;;;;;;;;;;;6.40;99.90;;;;;;5114654;27;20121;-78
2021/12/12 08:33:30;;;;;;;;;;;6.50;99.90;;;;;;5098006;27;20022;-78
2021/12/12 08:35:56;;;;;;;;;;;6.50;99.90;;;;;;5097200;27;20409;-78
2021/12/12 08:38:24;;;;;;;;;;;6.50;99.90;;;;;;5112407;27;19923;-78
2021/12/12 08:40:51;;;;;;;;;;;6.60;99.90;;;;;;5091839;27;20011;-77
2021/12/12 08:43:19;;;;;;;;;;;6.60;99.90;;;;;;5105667;28;19927;-78
2021/12/12 08:45:47;;;;;;;;;;;6.60;99.90;;;;;;5091963;27;19945;-78
2021/12/12 08:48:13;;;;;;;;;;;6.70;99.90;;;;;;5097737;27;19923;-77
2021/12/12 08:50:40;;;;;;;;;;;6.70;99.90;;;;;;5080583;27;19962;-78
2021/12/12 08:53:07;;;;;;;;;;;6.70;99.90;;;;;;5103219;28;19920;-78
2021/12/12 08:55:36;;;;;;;;;;;6.70;99.90;;;;;;5109261;27;19919;-78
2021/12/12 08:58:14;;;;;;;;;;;6.80;99.90;;;;;;5086426;27;19931;-78
2021/12/12 09:00:42;;;;;;;;;;;6.80;99.90;;;;;;5100584;28;20009;-77
2021/12/12 09:03:08;;;;;;;;;;;6.80;99.90;;;;;;5104709;27;20304;-77
2021/12/12 09:05:34;;;;;;;;;;;6.80;99.90;;;;;;5080967;27;19932;-78
2021/12/12 09:08:05;;;;;;;;;;;6.90;99.90;;;;;;5103763;28;19965;-78
2021/12/12 09:10:33;;;;;;;;;;;6.90;99.90;;;;;;5096138;27;20010;-77
2021/12/12 09:13:05;;;;;;;;;;;6.90;99.90;;;;;;5094984;27;19938;-78
2021/12/12 09:15:34;;;;;;;;;;;7.00;99.90;;;;;;5114534;27;20389;-77
2021/12/12 09:18:03;;;;;;;;;;;7.00;99.90;;;;;;5113766;27;19966;-77
2021/12/12 09:20:34;;;;;;;;;;;7.00;99.90;;;;;;5097871;28;19926;-78
2021/12/12 09:23:01;;;;;;;;;;;7.10;99.90;;;;;;5101282;27;19919;-77
2021/12/12 09:25:35;;;;;;;;;;;7.10;99.90;;;;;;5096596;27;20017;-77
2021/12/12 09:28:05;;;;;;;;;;;7.20;99.90;;;;;;5095997;27;20404;-77
2021/12/12 09:30:31;;;;;;;;;;;7.20;99.90;;;;;;5096670;27;19976;-77
2021/12/12 09:32:59;;;;;;;;;;;7.20;99.90;;;;;;5096944;27;19920;-78
2021/12/12 09:35:26;;;;;;;;;;;7.30;99.90;;;;;;5105492;28;20095;-77
2021/12/12 09:37:54;;;;;;;;;;;7.30;99.90;;;;;;5098657;27;19923;-76
2021/12/12 09:40:28;;;;;;;;;;;7.40;99.90;;;;;;5096185;27;20177;-78
2021/12/12 09:42:58;;;;;;;;;;;7.40;99.90;;;;;;5089216;27;19923;-78
2021/12/12 09:45:43;;;;;;;;;;;7.40;99.90;;;;;;5118496;27;19919;-77
2021/12/12 09:51:18;;;;;;;;;;;7.50;99.90;;;;;;5095846;27;20026;-78
2021/12/12 09:53:52;;;;;;;;;;;7.60;99.90;;;;;;5095963;27;19920;-77
2021/12/12 09:56:21;;;;;;;;;;;7.60;99.90;;;;;;5086857;28;19919;-78
2021/12/12 09:58:48;;;;;;;;;;;7.60;99.90;;;;;;5100886;27;19919;-77
2021/12/12 10:01:19;;;;;;;;;;;7.60;99.90;;;;;;5090886;27;19919;-76
2021/12/12 10:03:54;;;;;;;;;;;7.70;99.90;;;;;;5094661;27;19938;-77
2021/12/12 10:06:25;;;;;;;;;;;7.80;99.90;;;;;;5076442;28;20316;-78
2021/12/12 10:08:55;;;;;;;;;;;7.90;99.90;;;;;;5067495;27;19931;-78
2021/12/12 10:11:25;;;;;;;;;;;7.80;99.90;;;;;;5093025;27;19933;-78
2021/12/12 10:13:54;;;;;;;;;;;7.90;99.90;;;;;;5084828;27;19930;-78
2021/12/12 10:16:21;;;;;;;;;;;7.90;99.90;;;;;;5109959;27;19942;-78
2021/12/12 10:18:51;;;;;;;;;;;7.90;99.90;;;;;;5082657;27;20441;-77
2021/12/12 10:21:20;;;;;;;;;;;8.00;99.90;;;;;;5100953;28;19954;-78
2021/12/12 10:23:54;;;;;;;;;;;8.00;99.90;;;;;;5108290;28;20010;-77
2021/12/12 10:26:23;;;;;;;;;;;8.10;99.90;;;;;;5104035;27;19966;-77
2021/12/12 10:28:50;;;;;;;;;;;8.10;99.90;;;;;;5089700;27;19927;-77
2021/12/12 10:31:18;;;;;;;;;;;8.10;99.90;;;;;;5091586;28;19965;-78
2021/12/12 10:33:46;;;;;;;;;;;8.20;99.90;;;;;;5099091;27;21683;-77
2021/12/12 10:36:14;;;;;;;;;;;8.20;99.90;;;;;;5101857;28;19920;-78
2021/12/12 10:38:42;;;;;;;;;;;8.20;99.90;;;;;;5100097;28;20006;-78
2021/12/12 10:41:09;;;;;;;;;;;8.30;99.90;;;;;;5090497;28;20060;-77
2021/12/12 10:43:36;;;;;;;;;;;8.30;99.90;;;;;;5094119;28;19924;-77
2021/12/12 10:46:03;;;;;;;;;;;8.30;99.90;;;;;;5106214;28;19951;-78
2021/12/12 10:48:32;;;;;;;;;;;8.30;99.90;;;;;;5085003;28;19934;-77
2021/12/12 10:51:02;;;;;;;;;;;8.40;99.90;;;;;;5100880;28;20013;-77
2021/12/12 10:53:34;;;;;;;;;;;8.40;99.90;;;;;;5101711;28;20332;-77
2021/12/12 10:56:03;;;;;;;;;;;8.50;99.90;;;;;;5093752;28;19923;-78
2021/12/12 10:58:32;;;;;;;;;;;8.50;99.90;;;;;;5092335;28;20269;-77
2021/12/12 11:01:00;;;;;;;;;;;8.50;99.90;;;;;;5083930;28;19919;-78
2021/12/12 11:03:27;;;;;;;;;;;8.60;99.90;;;;;;5087858;28;20169;-78
2021/12/12 11:05:55;;;;;;;;;;;8.60;99.90;;;;;;5093006;28;19928;-77
2021/12/12 11:08:23;;;;;;;;;;;8.60;99.90;;;;;;5067664;28;20001;-78
2021/12/12 11:10:54;;;;;;;;;;;8.70;99.90;;;;;;5067924;27;20089;-78
2021/12/12 11:13:21;;;;;;;;;;;8.70;99.90;;;;;;5089553;28;19930;-78
2021/12/12 11:15:49;;;;;;;;;;;8.70;99.90;;;;;;5083158;28;19973;-78
2021/12/12 11:18:16;;;;;;;;;;;8.80;99.90;;;;;;5081926;28;19976;-77
2021/12/12 11:20:44;;;;;;;;;;;8.80;99.90;;;;;;5083763;28;19928;-77
2021/12/12 11:23:13;;;;;;;;;;;8.80;99.90;;;;;;5093617;28;19974;-78
2021/12/12 11:25:40;;;;;;;;;;;8.80;99.90;;;;;;5099095;28;20027;-77
2021/12/12 11:28:10;;;;;;;;;;;8.80;99.90;;;;;;5091540;28;19997;-78
2021/12/12 11:30:39;;;;;;;;;;;8.90;99.90;;;;;;5098521;28;19923;-78
2021/12/12 11:33:07;;;;;;;;;;;8.90;99.90;;;;;;5090087;28;20337;-77
2021/12/12 11:35:33;;;;;;;;;;;8.90;99.90;;;;;;5093577;28;19923;-79
2021/12/12 11:38:02;;;;;;;;;;;8.90;99.90;;;;;;5117552;27;20300;-78
2021/12/12 11:40:30;;;;;;;;;;;8.90;99.90;;;;;;5097287;27;19931;-78
2021/12/12 11:42:58;;;;;;;;;;;8.90;99.90;;;;;;5079405;28;19924;-78
2021/12/12 11:45:27;;;;;;;;;;;8.90;99.90;;;;;;5091332;27;19928;-78
2021/12/12 11:47:56;;;;;;;;;;;8.90;99.90;;;;;;5074684;27;19931;-78
2021/12/12 11:50:27;;;;;;;;;;;8.90;99.90;;;;;;5082283;27;19924;-78
2021/12/12 11:52:56;;;;;;;;;;;9.00;99.90;;;;;;5097354;27;19936;-78
2021/12/12 11:55:25;;;;;;;;;;;9.00;99.90;;;;;;5096378;27;19919;-78
2021/12/12 11:57:53;;;;;;;;;;;9.00;99.90;;;;;;5095895;27;19927;-77
2021/12/12 12:00:21;;;;;;;;;;;9.10;99.90;;;;;;5091806;27;19919;-78
2021/12/12 12:02:54;;;;;;;;;;;9.10;99.90;;;;;;5093603;27;19931;-78
2021/12/12 12:05:32;;;;;;;;;;;9.10;99.90;;;;;;5076663;27;19957;-77
2021/12/12 12:08:01;;;;;;;;;;;9.10;99.90;;;;;;5105149;27;19927;-76
2021/12/12 12:10:35;;;;;;;;;;;9.10;99.90;;;;;;5102716;27;19924;-78
2021/12/12 12:13:11;;;;;;;;;;;9.10;99.90;;;;;;5079056;27;20316;-78
2021/12/12 12:15:41;;;;;;;;;;;9.20;99.90;;;;;;5107006;27;19943;-78
2021/12/12 12:18:16;;;;;;;;;;;9.20;99.90;;;;;;5102589;27;19965;-78
2021/12/12 12:20:44;;;;;;;;;;;9.20;99.90;;;;;;5121533;27;20383;-78
2021/12/12 12:23:19;;;;;;;;;;;9.20;99.90;;;;;;5105709;27;19928;-79
2021/12/12 12:28:35;;;;;;;;;;;9.20;99.90;;;;;;5135992;27;19926;-78
2021/12/12 12:31:22;;;;;;;;;;;9.20;99.90;;;;;;5117767;27;19928;-77
2021/12/12 12:34:02;;;;;;;;;;;9.30;99.90;;;;;;5089387;27;20010;-78
2021/12/12 12:36:47;;;;;;;;;;;9.30;99.90;;;;;;5052887;27;19919;-79
2021/12/12 12:40:01;;;;;;;;;;;9.30;99.90;;;;;;5085434;27;20016;-78
2021/12/12 12:43:18;;;;;;;;;;;9.30;99.90;;;;;;5110127;27;20464;-78
2021/12/12 12:46:02;;;;;;;;;;;9.30;99.90;;;;;;5084355;27;19944;-77
2021/12/12 12:48:58;;;;;;;;;;;9.40;99.90;;;;;;5086181;27;19931;-78
2021/12/12 12:51:35;;;;;;;;;;;9.40;99.90;;;;;;5108639;27;19929;-78
2021/12/12 12:54:25;;;;;;;;;;;9.40;99.90;;;;;;5105395;27;21703;-78
2021/12/12 12:57:06;;;;;;;;;;;9.40;99.90;;;;;;5092731;27;19976;-79
2021/12/12 12:59:38;;;;;;;;;;;9.50;99.90;;;;;;5096820;27;20297;-78
2021/12/12 13:02:12;;;;;;;;;;;9.50;99.90;;;;;;5110398;27;19919;-78
2021/12/12 13:04:47;;;;;;;;;;;9.50;99.90;;;;;;5108528;27;19924;-77
2021/12/12 13:07:22;;;;;;;;;;;9.50;99.90;;;;;;5091381;28;19962;-78
2021/12/12 13:09:50;;;;;;;;;;;9.50;99.90;;;;;;5095674;28;19931;-79
2021/12/12 13:12:28;;;;;;;;;;;9.60;99.90;;;;;;5091053;27;20361;-79
2021/12/12 13:14:58;;;;;;;;;;;9.50;99.90;;;;;;5070754;27;19932;-78
2021/12/12 13:17:32;;;;;;;;;;;9.60;99.90;;;;;;5088146;27;19974;-78
2021/12/12 13:20:07;;;;;;;;;;;9.60;99.90;;;;;;5096845;27;19927;-78
2021/12/12 13:22:34;;;;;;;;;;;9.60;99.90;;;;;;5104960;27;19919;-78
2021/12/12 13:25:07;;;;;;;;;;;9.60;99.90;;;;;;5095104;27;19928;-78
2021/12/12 13:27:58;;;;;;;;;;;9.60;99.90;;;;;;5093019;27;20021;-78
2021/12/12 13:30:29;;;;;;;;;;;9.70;99.90;;;;;;5086975;27;20359;-79
2021/12/12 13:32:57;;;;;;;;;;;9.70;99.90;;;;;;5084569;27;19942;-78
2021/12/12 13:35:25;;;;;;;;;;;9.70;99.90;;;;;;5093631;27;20337;-77
2021/12/12 13:37:58;;;;;;;;;;;9.70;99.90;;;;;;5067539;27;19927;-78
2021/12/12 13:40:27;;;;;;;;;;;9.70;99.90;;;;;;5105909;27;19931;-79
2021/12/12 13:42:57;;;;;;;;;;;9.80;99.90;;;;;;5086863;27;19927;-78
2021/12/12 13:45:28;;;;;;;;;;;9.70;99.90;;;;;;5104460;27;19976;-78
2021/12/12 13:48:20;;;;;;;;;;;9.80;99.90;;;;;;5086684;27;21421;-78
2021/12/12 13:50:50;;;;;;;;;;;9.80;99.90;;;;;;5084961;27;19927;-79
2021/12/12 13:53:19;;;;;;;;;;;9.80;99.90;;;;;;5084220;27;20338;-79
2021/12/12 13:55:51;;;;;;;;;;;9.80;99.90;;;;;;5084831;27;20401;-78
2021/12/12 13:58:22;;;;;;;;;;;9.80;99.90;;;;;;5103003;27;19923;-78
2021/12/12 14:00:50;;;;;;;;;;;9.90;99.90;;;;;;5098679;28;19935;-78
2021/12/12 14:05:54;;;;;;;;;;;9.90;99.90;;;;;;5065007;28;19931;-84
2021/12/12 14:08:22;;;;;;;;;;;9.90;99.90;;;;;;5033431;28;19986;-82
2021/12/12 14:10:50;;;;;;;;;;;9.90;99.90;;;;;;5034996;28;19947;-80
2021/12/12 14:13:17;;;;;;;;;;;9.90;99.90;;;;;;5049544;28;20468;-83
2021/12/12 14:15:47;;;;;;;;;;;9.90;99.90;;;;;;5020767;28;20243;-81
2021/12/12 14:18:13;;;;;;;;;;;9.90;99.90;;;;;;5028886;28;19936;-81
2021/12/12 14:20:44;;;;;;;;;;;9.90;99.90;;;;;;5031852;28;19920;-82
2021/12/12 14:23:11;;;;;;;;;;;9.90;99.90;;;;;;5036383;28;19920;-83
2021/12/12 14:25:40;;;;;;;;;;;9.90;99.90;;;;;;5047710;28;19921;-83
2021/12/12 14:28:06;;;;;;;;;;;9.90;99.90;;;;;;5037441;28;19936;-82
2021/12/12 14:30:33;;;;;;;;;;;9.90;99.90;;;;;;5054894;28;20310;-83
2021/12/12 14:33:01;;;;;;;;;;;9.90;99.90;;;;;;5031168;28;19932;-83
2021/12/12 14:35:30;;;;;;;;;;;9.90;99.90;;;;;;5014297;28;19929;-82
2021/12/12 14:37:56;;;;;;;;;;;9.90;99.90;;;;;;5030638;28;20409;-82
2021/12/12 14:40:24;;;;;;;;;;;9.90;99.90;;;;;;5014215;28;19960;-81
2021/12/12 14:42:51;;;;;;;;;;;9.90;99.90;;;;;;5014362;28;19928;-82
2021/12/12 14:45:19;;;;;;;;;;;9.90;99.90;;;;;;5014284;28;20030;-82
2021/12/12 14:47:46;;;;;;;;;;;9.90;99.90;;;;;;5039012;28;19921;-82
2021/12/12 14:50:15;;;;;;;;;;;9.90;99.90;;;;;;5014361;28;20568;-82
2021/12/12 14:52:42;;;;;;;;;;;10.00;99.90;;;;;;5028885;28;19933;-82
2021/12/12 14:55:14;;;;;;;;;;;9.90;99.90;;;;;;5014097;28;19927;-83
2021/12/12 14:57:40;;;;;;;;;;;9.90;99.90;;;;;;5030991;28;19928;-83
2021/12/12 15:00:07;;;;;;;;;;;9.90;99.90;;;;;;5031750;28;20357;-81
2021/12/12 15:02:34;;;;;;;;;;;9.90;99.90;;;;;;5035519;28;19929;-82